»·PEaware :: PRD69 KBOI-KGPI

PRD69 :: KBOI-KGPI

FLIGHT INFORMATION

Flight Status: Arrived
Operator: Unknown
More flights by this operator :: More flights under this callsign
Pilot: Nate M. (12976)
Aircraft: GULFSTREAM G-1159C GULFSTREAM 4
(GLF4)
More flights by this aircraft type
Origin: KBOI Boise Air Terminal/Gowen
United States
Destination: KGPI Glacier Park Intl
United States
More flights between these airports :: More routes between these airports
Route: +DEETZ SAWTT DOXIE VAILL
File this flight plan on PilotEdge
Remarks:
Altitude:
(Current/Filed)
31,000ft
Speed:
(Current/Filed)
400kts
Departed: 24-Sep-18 01:37 PM
Arrived: 24-Sep-18 02:25 PM
Distance/Time
Traveled:
296nm/0:47
Distance/Time
To Go:
Arrived

Flight Plot

Page will automatically refresh every two minutes.

Flight plan parsing failed; only flown route is shown


Map Options




Map Legend


Flown Route
Filed Route
Departure Airport
Arrival Airport
Navaid (VOR, NDB)
Fix

Horizontal Profiles

Position Reports

Time Latitude Longitude Heading Altitude Ground
Speed
24-Sep-18 13:19 43.570225 -116.229030 272 2837ft 0kts
24-Sep-18 13:20 43.570225 -116.229030 272 2837ft 0kts
24-Sep-18 13:21 43.570225 -116.229030 272 2837ft 0kts
24-Sep-18 13:22 43.570225 -116.229030 272 2837ft 0kts
24-Sep-18 13:23 43.570225 -116.229030 272 2837ft 0kts
24-Sep-18 13:24 43.570225 -116.229030 272 2837ft 0kts
24-Sep-18 13:25 43.570225 -116.229030 272 2837ft 0kts
24-Sep-18 13:26 43.570225 -116.229030 272 2837ft 0kts
24-Sep-18 13:27 43.570225 -116.229030 272 2837ft 0kts
24-Sep-18 13:28 43.570225 -116.229030 272 2837ft 0kts
24-Sep-18 13:29 43.570225 -116.229030 272 2837ft 0kts
24-Sep-18 13:30 43.570225 -116.229030 272 2837ft 0kts
24-Sep-18 13:31 43.570225 -116.229030 272 2837ft 0kts
24-Sep-18 13:32 43.570225 -116.229030 272 2837ft 0kts
24-Sep-18 13:33 43.570225 -116.229030 272 2837ft 0kts
24-Sep-18 13:34 43.570225 -116.229030 272 2837ft 0kts
24-Sep-18 13:35 43.568667 -116.228325 138 2842ft 20kts
24-Sep-18 13:36 43.565665 -116.220174 116 2855ft 26kts
24-Sep-18 13:37 43.562300 -116.210129 115 2865ft 24kts
24-Sep-18 13:38 43.559765 -116.202950 120 2873ft 16kts
24-Sep-18 13:39 43.565579 -116.223480 295 3108ft 175kts
24-Sep-18 13:40 43.594936 -116.314488 294 5989ft 276kts
24-Sep-18 13:41 43.625165 -116.408118 296 10457ft 281kts
24-Sep-18 13:42 43.674714 -116.487497 340 14147ft 287kts
24-Sep-18 13:43 43.752017 -116.472425 23 17381ft 303kts
24-Sep-18 13:44 43.825792 -116.411942 26 20375ft 318kts
24-Sep-18 13:45 43.902054 -116.346245 25 23029ft 331kts
24-Sep-18 13:46 43.983684 -116.275522 25 25611ft 368kts
24-Sep-18 13:47 44.073961 -116.196951 25 28094ft 399kts
24-Sep-18 13:48 44.167276 -116.115456 24 30531ft 422kts
24-Sep-18 13:49 44.272793 -116.026182 23 31204ft 471kts
24-Sep-18 13:50 44.386780 -115.931806 23 31202ft 481kts
24-Sep-18 13:51 44.500129 -115.837650 23 31198ft 477kts
24-Sep-18 13:52 44.614060 -115.743080 20 31196ft 474kts
24-Sep-18 13:53 44.735679 -115.682540 11 31202ft 464kts
24-Sep-18 13:54 44.858229 -115.626713 11 31197ft 465kts
24-Sep-18 13:55 44.980684 -115.570735 11 31197ft 465kts
24-Sep-18 13:56 45.100569 -115.515684 11 31198ft 447kts
24-Sep-18 13:57 45.216111 -115.462400 11 31208ft 438kts
24-Sep-18 13:58 45.331473 -115.408966 11 31216ft 437kts
24-Sep-18 13:59 45.446434 -115.355506 11 31241ft 437kts
24-Sep-18 14:00 45.560470 -115.302800 11 31234ft 437kts
24-Sep-18 14:01 45.675334 -115.248967 11 31235ft 437kts
24-Sep-18 14:02 45.789800 -115.195051 11 31228ft 437kts
24-Sep-18 14:03 45.906065 -115.151329 6 31229ft 434kts
24-Sep-18 14:04 46.023087 -115.115708 6 31227ft 438kts
24-Sep-18 14:05 46.136729 -115.081081 6 31232ft 441kts
24-Sep-18 14:06 46.255494 -115.044775 6 31192ft 445kts
24-Sep-18 14:07 46.374034 -115.008360 6 31150ft 449kts
24-Sep-18 14:08 46.495370 -114.970920 6 30250ft 458kts
24-Sep-18 14:09 46.619550 -114.932420 7 28689ft 467kts
24-Sep-18 14:10 46.746218 -114.892952 7 26880ft 470kts
24-Sep-18 14:11 46.870947 -114.853922 7 24741ft 469kts
24-Sep-18 14:12 46.996838 -114.814335 8 22242ft 469kts
24-Sep-18 14:13 47.122779 -114.774541 8 19816ft 493kts
24-Sep-18 14:14 47.241958 -114.736676 8 17639ft 503kts
24-Sep-18 14:15 47.364674 -114.697497 9 15355ft 489kts
24-Sep-18 14:16 47.486918 -114.658317 9 13047ft 485kts
24-Sep-18 14:17 47.608642 -114.619101 9 11070ft 476kts
24-Sep-18 14:18 47.729313 -114.580035 9 10995ft 432kts
24-Sep-18 14:19 47.839456 -114.544240 9 10996ft 401kts
24-Sep-18 14:20 47.932654 -114.513839 9 10794ft 390kts
24-Sep-18 14:21 48.032943 -114.480135 13 10493ft 349kts
24-Sep-18 14:22 48.120945 -114.439764 11 10494ft 316kts
24-Sep-18 14:23 48.186479 -114.384455 30 9580ft 288kts
24-Sep-18 14:24 48.228885 -114.340253 31 6938ft 206kts
24-Sep-18 14:25 48.275444 -114.291927 32 3507ft 172kts
24-Sep-18 14:26 48.306737 -114.259520 31 2968ft 121kts
24-Sep-18 14:27 48.310933 -114.253590 151 2971ft 0kts
24-Sep-18 14:28 48.309215 -114.253101 183 2971ft 0kts
24-Sep-18 14:29 48.309215 -114.253101 183 2971ft 0kts

Navigation Log

Ident Type
Flight plan parsing failed, navigation log unavailable